Time;durP1;ratioP1;P1;durP2;ratioP2;P2;SDS_P1;SDS_P2;PMS_P1;PMS_P2;Temp;Humidity;BMP_temperature;BMP_pressure;BME280_temperature;BME280_humidity;BME280_pressure;Samples;Min_cycle;Max_cycle;Signal;HPM_P1;HPM_P2
2021/01/01 00:00:14;;;;;;;3.60;2.50;;;;;;;1.22;100.00;100067.30;1810595;79;21434;-72
2021/01/01 00:02:42;;;;;;;2.67;2.23;;;;;;;1.20;100.00;100060.36;1810473;79;21460;-72
2021/01/01 00:05:17;;;;;;;3.90;2.47;;;;;;;1.19;100.00;100057.31;1810572;79;20992;-72
2021/01/01 00:07:45;;;;;;;4.20;2.80;;;;;;;1.13;100.00;100048.83;1810515;79;20930;-72
2021/01/01 00:10:13;;;;;;;3.27;2.50;;;;;;;1.09;100.00;100049.15;1810612;78;21605;-73
2021/01/01 00:12:41;;;;;;;3.60;1.97;;;;;;;1.05;100.00;100047.67;1829337;78;21043;-71
2021/01/01 00:15:11;;;;;;;3.00;1.73;;;;;;;1.03;100.00;100049.11;1829902;78;20926;-72
2021/01/01 00:17:39;;;;;;;4.70;2.87;;;;;;;1.03;100.00;100052.27;1841128;77;21049;-73
2021/01/01 00:20:09;;;;;;;1.90;1.47;;;;;;;1.04;100.00;100049.95;1843625;77;20981;-72
2021/01/01 00:22:39;;;;;;;3.73;2.93;;;;;;;1.06;100.00;100050.69;1843643;77;20928;-73
2021/01/01 00:25:08;;;;;;;3.30;2.23;;;;;;;1.05;100.00;100045.02;1843646;77;21369;-73
2021/01/01 00:27:36;;;;;;;2.87;2.10;;;;;;;1.06;100.00;100048.03;1843707;77;21025;-71
2021/01/01 00:30:06;;;;;;;2.83;1.93;;;;;;;1.04;100.00;100044.63;1843637;77;21040;-72
2021/01/01 00:32:34;;;;;;;3.70;2.63;;;;;;;1.03;100.00;100039.79;1842666;77;20997;-72
2021/01/01 00:35:03;;;;;;;2.47;2.27;;;;;;;1.01;100.00;100039.52;1837285;78;21053;-73
2021/01/01 00:37:36;;;;;;;2.27;2.07;;;;;;;0.99;100.00;100037.45;1837811;78;22524;-73
2021/01/01 00:40:08;;;;;;;4.50;2.87;;;;;;;0.95;100.00;100040.32;1837717;78;21550;-71
2021/01/01 00:42:37;;;;;;;3.17;2.80;;;;;;;0.92;100.00;100034.36;1838035;78;21025;-73
2021/01/01 00:45:07;;;;;;;3.23;2.20;;;;;;;0.91;100.00;100039.34;1837629;77;20973;-73
2021/01/01 00:47:35;;;;;;;2.23;1.77;;;;;;;0.88;100.00;100035.06;1837884;78;21519;-72
2021/01/01 00:50:04;;;;;;;4.30;3.17;;;;;;;0.87;100.00;100037.86;1837758;78;21254;-73
2021/01/01 00:52:32;;;;;;;2.40;2.20;;;;;;;0.86;100.00;100032.16;1837764;77;21068;-73
2021/01/01 00:55:00;;;;;;;3.77;2.50;;;;;;;0.85;100.00;100037.97;1837733;77;21025;-73
2021/01/01 00:57:27;;;;;;;2.87;2.30;;;;;;;0.84;100.00;100035.41;1837688;78;20989;-72
2021/01/01 00:59:55;;;;;;;2.57;1.73;;;;;;;0.82;100.00;100038.17;1837725;78;20969;-72
2021/01/01 01:02:23;;;;;;;4.53;2.47;;;;;;;0.81;100.00;100027.14;1837840;77;21196;-72
2021/01/01 01:04:51;;;;;;;3.03;2.33;;;;;;;0.81;100.00;100034.29;1837640;78;21002;-72
2021/01/01 01:07:19;;;;;;;5.80;2.17;;;;;;;0.77;100.00;100030.99;1837620;78;20923;-72
2021/01/01 01:09:47;;;;;;;3.13;2.27;;;;;;;0.74;100.00;100026.75;1837677;78;21539;-72
2021/01/01 01:12:14;;;;;;;4.37;2.27;;;;;;;0.72;100.00;100029.13;1829523;78;21032;-72
2021/01/01 01:14:42;;;;;;;3.40;2.37;;;;;;;0.72;100.00;100025.14;1827262;78;22529;-73
2021/01/01 01:17:09;;;;;;;3.80;2.57;;;;;;;0.69;100.00;100024.89;1823127;77;21049;-72
2021/01/01 01:19:37;;;;;;;2.77;2.20;;;;;;;0.68;100.00;100023.66;1781898;80;21420;-72
2021/01/01 01:22:05;;;;;;;3.63;2.43;;;;;;;0.66;100.00;100023.77;1820668;78;20994;-73
2021/01/01 01:24:33;;;;;;;3.03;2.13;;;;;;;0.63;100.00;100017.33;1782009;80;21009;-72
2021/01/01 01:27:01;;;;;;;3.33;2.53;;;;;;;0.63;100.00;100016.48;1820790;78;21029;-73
2021/01/01 01:29:28;;;;;;;2.80;2.33;;;;;;;0.63;100.00;100016.48;1820708;78;20945;-72
2021/01/01 01:31:56;;;;;;;4.63;2.50;;;;;;;0.63;100.00;100018.66;1820860;78;20981;-72
2021/01/01 01:34:24;;;;;;;2.60;2.10;;;;;;;0.62;100.00;100006.78;1827279;78;21028;-73
2021/01/01 01:36:53;;;;;;;1.50;1.40;;;;;;;0.60;100.00;100004.22;1853989;77;21573;-72
2021/01/01 01:39:21;;;;;;;2.93;2.40;;;;;;;0.59;100.00;100002.55;1863623;77;21330;-73
2021/01/01 01:41:49;;;;;;;2.83;2.30;;;;;;;0.59;100.00;99999.04;1863616;77;20929;-72
2021/01/01 01:44:17;;;;;;;2.80;2.20;;;;;;;0.58;100.00;100000.83;1863548;77;21162;-73
2021/01/01 01:46:45;;;;;;;3.53;2.27;;;;;;;0.58;100.00;99994.17;1863685;77;20973;-73
2021/01/01 01:49:15;;;;;;;3.50;2.27;;;;;;;0.57;100.00;99992.49;1863100;77;21043;-73
2021/01/01 01:51:47;;;;;;;3.67;2.13;;;;;;;0.58;100.00;99991.52;1863563;77;21165;-72
2021/01/01 01:54:16;;;;;;;5.30;2.57;;;;;;;0.57;100.00;99996.48;1863721;77;20973;-73
2021/01/01 01:56:44;;;;;;;6.00;2.70;;;;;;;0.58;100.00;100002.16;1863647;77;21036;-72
2021/01/01 01:59:15;;;;;;;2.10;1.87;;;;;;;0.60;100.00;99998.91;1863620;77;20925;-72
2021/01/01 02:01:42;;;;;;;3.27;2.13;;;;;;;0.60;100.00;99994.91;1863702;77;20961;-73
2021/01/01 02:04:14;;;;;;;2.77;1.67;;;;;;;0.61;100.00;100001.95;1863528;77;21255;-72
2021/01/01 02:06:43;;;;;;;3.10;2.17;;;;;;;0.64;100.00;99998.20;1863576;77;20932;-72
2021/01/01 02:09:12;;;;;;;4.70;2.13;;;;;;;0.63;100.00;99998.69;1863694;77;20885;-71
2021/01/01 02:11:41;;;;;;;2.97;1.80;;;;;;;0.65;100.00;99994.59;1852626;77;20977;-72
2021/01/01 02:14:10;;;;;;;3.27;2.43;;;;;;;0.66;100.00;99995.83;1843749;77;21186;-73
2021/01/01 02:16:37;;;;;;;4.37;2.80;;;;;;;0.66;100.00;99994.49;1843708;77;21726;-72
2021/01/01 02:19:05;;;;;;;5.63;3.30;;;;;;;0.68;100.00;99997.05;1816015;77;20942;-72
2021/01/01 02:21:33;;;;;;;4.03;2.40;;;;;;;0.68;100.00;99996.56;1843743;77;20970;-72
2021/01/01 02:24:01;;;;;;;4.23;2.30;;;;;;;0.68;100.00;99996.56;1843804;77;21526;-73
2021/01/01 02:26:29;;;;;;;3.60;2.13;;;;;;;0.68;100.00;99991.73;1843624;77;20902;-73
2021/01/01 02:28:57;;;;;;;3.00;2.20;;;;;;;0.66;100.00;99996.31;1843737;77;21646;-73
2021/01/01 02:31:24;;;;;;;3.13;2.37;;;;;;;0.66;100.00;99985.67;1843689;77;21188;-73
2021/01/01 02:33:52;;;;;;;8.43;2.80;;;;;;;0.66;100.00;99987.00;1842617;77;20920;-73
2021/01/01 02:36:20;;;;;;;3.47;2.43;;;;;;;0.66;100.00;99988.33;1841013;78;20989;-73
2021/01/01 02:38:48;;;;;;;2.90;2.70;;;;;;;0.64;100.00;99981.78;1841097;78;21140;-71
2021/01/01 02:41:16;;;;;;;2.37;1.83;;;;;;;0.64;100.00;99983.57;1841070;78;21192;-73
2021/01/01 02:43:44;;;;;;;2.90;2.07;;;;;;;0.64;100.00;99987.10;1841104;78;21069;-72
2021/01/01 02:46:12;;;;;;;3.10;2.27;;;;;;;0.64;100.00;99982.23;1841050;78;20962;-72
2021/01/01 02:48:40;;;;;;;3.13;2.37;;;;;;;0.62;100.00;99985.49;1841060;78;20993;-72
2021/01/01 02:51:08;;;;;;;4.83;1.90;;;;;;;0.62;100.00;99985.49;1841172;78;21037;-73
2021/01/01 02:53:36;;;;;;;5.50;2.93;;;;;;;0.61;100.00;99975.83;1840935;78;23588;-73
2021/01/01 02:56:04;;;;;;;2.90;2.43;;;;;;;0.62;100.00;99985.49;1840948;78;21052;-72
2021/01/01 02:58:32;;;;;;;3.10;1.77;;;;;;;0.63;100.00;99980.55;1841077;78;20958;-72
2021/01/01 03:00:59;;;;;;;2.10;1.93;;;;;;;0.61;100.00;99979.33;1841079;78;22144;-73
2021/01/01 03:03:27;;;;;;;3.47;2.50;;;;;;;0.61;100.00;99975.83;1841066;78;20973;-73
2021/01/01 03:05:55;;;;;;;1.40;1.30;;;;;;;0.61;100.00;99979.81;1841133;77;21546;-72
2021/01/01 03:08:22;;;;;;;4.40;2.73;;;;;;;0.60;100.00;99979.44;1840895;78;21334;-72
2021/01/01 03:10:50;;;;;;;4.20;2.57;;;;;;;0.60;100.00;99980.28;1838151;77;21571;-73
2021/01/01 03:13:18;;;;;;;2.37;1.57;;;;;;;0.62;100.00;99993.48;1826663;78;20938;-73
2021/01/01 03:15:46;;;;;;;4.60;2.90;;;;;;;0.64;100.00;99992.42;1826656;76;21544;-73
2021/01/01 03:18:15;;;;;;;1.80;1.53;;;;;;;0.69;100.00;99997.41;1783648;80;22106;-73
2021/01/01 03:20:43;;;;;;;2.67;1.87;;;;;;;0.72;100.00;99995.86;1787577;80;21039;-73
2021/01/01 03:23:10;;;;;;;2.10;1.97;;;;;;;0.75;100.00;99995.16;1787707;80;20951;-72
2021/01/01 03:25:38;;;;;;;2.17;1.93;;;;;;;0.79;100.00;100000.28;1779272;80;21578;-72
2021/01/01 03:28:06;;;;;;;2.47;2.10;;;;;;;0.83;100.00;100000.42;1797319;79;21000;-73
2021/01/01 03:30:34;;;;;;;3.03;2.03;;;;;;;0.86;100.00;99993.06;1797224;79;21390;-72
2021/01/01 03:33:02;;;;;;;3.90;2.07;;;;;;;0.89;100.00;99981.36;1797159;79;20973;-72
2021/01/01 03:35:31;;;;;;;5.43;2.10;;;;;;;0.88;100.00;99991.63;1780342;79;21002;-72
2021/01/01 03:37:59;;;;;;;3.67;2.43;;;;;;;0.86;100.00;99985.56;1779266;80;20946;-72
2021/01/01 03:40:26;;;;;;;1.70;1.10;;;;;;;0.85;100.00;99986.52;1779287;80;20994;-72
2021/01/01 03:42:54;;;;;;;2.30;2.10;;;;;;;0.83;100.00;99991.10;1779228;80;22283;-72
2021/01/01 03:45:22;;;;;;;3.37;2.30;;;;;;;0.82;100.00;99990.26;1779119;80;21005;-71
2021/01/01 03:47:49;;;;;;;2.40;2.03;;;;;;;0.82;100.00;99990.26;1751413;80;20898;-71
2021/01/01 03:50:17;;;;;;;4.37;2.33;;;;;;;0.81;100.00;99994.36;1779201;80;21570;-72
2021/01/01 03:52:47;;;;;;;2.07;1.57;;;;;;;0.80;100.00;99983.33;1779296;80;20994;-72
2021/01/01 03:55:15;;;;;;;4.87;2.60;;;;;;;0.77;100.00;99979.58;1779138;80;21136;-73
2021/01/01 03:57:43;;;;;;;2.90;1.77;;;;;;;0.74;100.00;99976.64;1779007;80;21033;-73
2021/01/01 04:00:14;;;;;;;4.40;2.50;;;;;;;0.71;100.00;99971.07;1779095;80;20942;-73
2021/01/01 04:02:41;;;;;;;4.70;2.70;;;;;;;0.69;100.00;99976.98;1779203;80;21542;-72
2021/01/01 04:05:11;;;;;;;4.83;2.67;;;;;;;0.68;100.00;99972.61;1779176;80;21013;-72
2021/01/01 04:07:41;;;;;;;5.10;2.93;;;;;;;0.68;100.00;99969.11;1779224;80;21431;-73
2021/01/01 04:10:09;;;;;;;3.27;2.33;;;;;;;0.66;100.00;99970.54;1779078;80;20958;-72
2021/01/01 04:12:37;;;;;;;3.07;2.23;;;;;;;0.64;100.00;99968.94;1766752;80;21550;-72
2021/01/01 04:15:07;;;;;;;4.43;3.27;;;;;;;0.62;100.00;99973.52;1765987;81;21064;-72
2021/01/01 04:17:36;;;;;;;3.70;2.77;;;;;;;0.59;100.00;99971.09;1741437;80;21006;-73
2021/01/01 04:20:06;;;;;;;2.33;2.00;;;;;;;0.56;100.00;99976.14;1735512;82;21378;-73
2021/01/01 04:22:34;;;;;;;3.20;1.87;;;;;;;0.55;100.00;99980.63;1735625;82;21563;-73
2021/01/01 04:25:02;;;;;;;7.30;3.13;;;;;;;0.55;100.00;99980.63;1735599;82;20955;-73
2021/01/01 04:27:29;;;;;;;5.37;3.20;;;;;;;0.56;100.00;99980.13;1735464;82;21042;-73
2021/01/01 04:29:57;;;;;;;2.17;1.93;;;;;;;0.58;100.00;99980.03;1735663;82;21026;-73
2021/01/01 04:32:25;;;;;;;3.67;2.50;;;;;;;0.56;100.00;99982.80;1735540;81;22542;-73
2021/01/01 04:34:52;;;;;;;4.30;2.80;;;;;;;0.55;100.00;99980.63;1747390;81;21024;-73
2021/01/01 04:37:20;;;;;;;3.37;2.37;;;;;;;0.54;100.00;99983.39;1759044;81;20893;-73
2021/01/01 04:39:48;;;;;;;4.23;2.40;;;;;;;0.53;100.00;99985.66;1758839;81;20992;-72
2021/01/01 04:42:16;;;;;;;3.67;2.17;;;;;;;0.53;100.00;99977.22;1774677;80;20997;-72
2021/01/01 04:44:44;;;;;;;5.93;3.10;;;;;;;0.53;100.00;99978.55;1731771;81;22279;-72
2021/01/01 04:47:13;;;;;;;4.53;1.53;;;;;;;0.51;100.00;99981.81;1774737;80;21015;-73
2021/01/01 04:49:41;;;;;;;1.83;1.73;;;;;;;0.50;100.00;99972.59;1759000;81;20937;-72
2021/01/01 04:52:09;;;;;;;3.77;2.70;;;;;;;0.45;100.00;99972.91;1774664;80;20994;-72
2021/01/01 04:54:38;;;;;;;3.53;2.27;;;;;;;0.44;100.00;99978.33;1758881;81;21075;-73
2021/01/01 04:57:06;;;;;;;5.67;2.63;;;;;;;0.42;100.00;99978.44;1774743;80;21199;-72
2021/01/01 04:59:35;;;;;;;3.63;2.43;;;;;;;0.40;100.00;99979.03;1731501;81;20999;-73
2021/01/01 05:02:03;;;;;;;4.60;2.57;;;;;;;0.40;100.00;99968.88;1774738;80;20918;-73
2021/01/01 05:04:33;;;;;;;4.90;2.83;;;;;;;0.37;100.00;99970.80;1758858;81;21073;-72
2021/01/01 05:07:00;;;;;;;2.27;2.07;;;;;;;0.34;100.00;99971.01;1774663;80;21459;-73
2021/01/01 05:09:28;;;;;;;3.93;2.20;;;;;;;0.33;100.00;99968.45;1758848;81;21344;-73
2021/01/01 05:12:08;;;;;;;2.83;2.13;;;;;;;0.32;100.00;99968.06;1784698;80;20977;-73
2021/01/01 05:14:36;;;;;;;3.03;2.33;;;;;;;0.31;100.00;99980.52;1741821;82;21129;-73
2021/01/01 05:17:04;;;;;;;3.03;2.30;;;;;;;0.30;100.00;99972.64;1724451;82;21172;-72
2021/01/01 05:19:42;;;;;;;3.53;2.37;;;;;;;0.30;100.00;99987.27;1712322;83;20975;-74
2021/01/01 05:22:17;;;;;;;3.53;2.90;;;;;;;0.33;100.00;99975.94;1845117;76;26671;-73
2021/01/01 05:24:46;;;;;;;3.73;2.27;;;;;;;0.29;100.00;99977.61;1815309;78;20992;-71
2021/01/01 05:27:16;;;;;;;2.33;2.07;;;;;;;0.29;100.00;99990.42;1815316;78;21350;-72
2021/01/01 05:29:57;;;;;;;5.03;2.60;;;;;;;0.28;100.00;99991.36;1815177;79;20889;-72
2021/01/01 05:32:28;;;;;;;2.17;1.90;;;;;;;0.29;100.00;99987.77;1815322;78;20921;-73
2021/01/01 05:34:57;;;;;;;3.77;2.60;;;;;;;0.28;100.00;99982.55;1815410;79;21521;-73
2021/01/01 05:37:33;;;;;;;1.60;1.50;;;;;;;0.27;100.00;99990.17;1815209;79;20957;-73
2021/01/01 05:40:05;;;;;;;0.93;0.93;;;;;;;0.27;100.00;100000.32;1815210;78;21549;-73
2021/01/01 05:42:35;;;;;;;2.50;1.77;;;;;;;0.28;100.00;100003.33;1815196;79;20973;-73
2021/01/01 05:45:18;;;;;;;3.73;1.30;;;;;;;0.31;100.00;99996.97;1815230;77;21027;-73
2021/01/01 05:48:04;;;;;;;;;;;;;;;0.34;100.00;99987.45;1732918;81;21031;-72
2021/01/01 05:50:38;;;;;;;2.50;1.73;;;;;;;0.41;100.00;99975.88;1851670;76;26337;-72
2021/01/01 05:53:18;;;;;;;2.27;1.77;;;;;;;0.37;100.00;99972.13;1782688;80;21541;-74
2021/01/01 05:55:47;;;;;;;1.57;1.43;;;;;;;0.37;100.00;99969.47;1855192;77;21241;-72
2021/01/01 05:58:24;;;;;;;2.30;1.47;;;;;;;0.38;100.00;99961.00;1854932;77;20997;-73
2021/01/01 06:00:56;;;;;;;4.07;2.47;;;;;;;0.37;100.00;99965.48;1849995;77;20957;-73
2021/01/01 06:03:33;;;;;;;1.57;1.47;;;;;;;0.34;100.00;99948.40;1850273;77;20981;-73
2021/01/01 06:06:04;;;;;;;3.43;2.27;;;;;;;0.34;100.00;99947.55;1855109;77;20909;-72
2021/01/01 06:08:33;;;;;;;1.50;1.40;;;;;;;0.32;100.00;99952.98;1855186;77;22536;-71
2021/01/01 06:11:03;;;;;;;3.67;1.90;;;;;;;0.32;100.00;99956.97;1845889;77;21045;-71
2021/01/01 06:13:35;;;;;;;1.97;1.70;;;;;;;0.33;100.00;99954.66;1821543;78;20949;-72
2021/01/01 06:16:05;;;;;;;3.22;2.33;;;;;;;0.33;100.00;99954.66;1821357;78;20993;-72
2021/01/01 06:18:34;;;;;;;1.37;1.27;;;;;;;0.33;100.00;99957.32;1819996;78;21562;-73
2021/01/01 06:21:08;;;;;;;2.73;1.87;;;;;;;0.35;100.00;99952.77;1819772;78;21378;-73
2021/01/01 06:23:40;;;;;;;3.93;2.33;;;;;;;0.40;100.00;99950.26;1819769;78;20926;-73
2021/01/01 06:26:10;;;;;;;1.37;1.27;;;;;;;0.42;100.00;99957.16;1819972;78;20950;-72
2021/01/01 06:28:43;;;;;;;3.33;2.07;;;;;;;0.47;100.00;99955.52;1819854;78;21128;-73
2021/01/01 06:31:11;;;;;;;1.98;1.75;;;;;;;0.52;100.00;99950.23;1820125;78;21582;-74
2021/01/01 06:33:45;;;;;;;4.53;2.40;;;;;;;0.58;100.00;99947.61;1819816;78;21381;-73
2021/01/01 06:36:38;;;;;;;1.77;1.67;;;;;;;0.60;100.00;99940.84;1819906;78;21593;-72
2021/01/01 06:39:05;;;;;;;2.02;1.57;;;;;;;0.61;100.00;99928.77;1819964;78;20974;-73
2021/01/01 06:41:45;;;;;;;1.27;1.27;;;;;;;0.63;100.00;99928.17;1819721;78;21001;-73
2021/01/01 06:44:42;;;;;;;1.83;1.67;;;;;;;0.66;100.00;99924.46;1819846;78;20989;-72
2021/01/01 06:47:42;;;;;;;1.63;1.47;;;;;;;0.73;100.00;99914.58;1889882;76;26309;-72
2021/01/01 06:50:30;;;;;;;1.32;1.22;;;;;;;0.71;100.00;99924.49;1728103;81;21590;-73
2021/01/01 06:53:07;;;;;;;2.50;2.30;;;;;;;0.81;100.00;99922.48;1845400;76;26649;-73
2021/01/01 06:55:38;;;;;;;5.47;3.00;;;;;;;0.79;100.00;99921.27;1815454;78;21557;-73
2021/01/01 06:58:06;;;;;;;3.97;3.00;;;;;;;0.83;100.00;99940.03;1763173;79;21200;-73
2021/01/01 07:00:51;;;;;;;3.50;2.30;;;;;;;0.88;100.00;99929.91;1763092;81;21664;-72
2021/01/01 07:03:33;;;;;;;2.50;2.07;;;;;;;0.91;100.00;99932.35;1763222;81;20992;-72
2021/01/01 07:06:06;;;;;;;3.40;2.30;;;;;;;0.95;100.00;99936.48;1763170;81;21052;-73
2021/01/01 07:08:47;;;;;;;6.30;3.47;;;;;;;0.99;100.00;99944.25;1763257;81;21604;-73
2021/01/01 07:11:25;;;;;;;6.50;4.00;;;;;;;1.01;100.00;99944.98;1763136;81;22777;-72
2021/01/01 07:13:54;;;;;;;3.33;2.30;;;;;;;1.02;100.00;99957.34;1763232;81;20957;-73
2021/01/01 07:16:24;;;;;;;4.20;2.50;;;;;;;1.00;100.00;99968.59;1763025;81;21039;-73
2021/01/01 07:18:53;;;;;;;2.33;1.97;;;;;;;0.99;100.00;99990.84;1784045;80;20985;-72
2021/01/01 07:21:21;;;;;;;4.77;2.87;;;;;;;0.99;100.00;99998.84;1719952;83;21005;-72
2021/01/01 07:23:48;;;;;;;4.33;3.43;;;;;;;0.97;100.00;99986.96;1718429;83;21212;-72
2021/01/01 07:26:16;;;;;;;5.57;3.37;;;;;;;0.95;100.00;99964.44;1789871;80;21097;-73
2021/01/01 07:28:47;;;;;;;4.77;2.93;;;;;;;0.95;100.00;99979.57;1719807;83;20982;-73
2021/01/01 07:31:22;;;;;;;4.30;2.63;;;;;;;0.98;100.00;99978.02;1889917;76;26117;-73
2021/01/01 07:33:50;;;;;;;5.37;3.23;;;;;;;0.94;100.00;99995.20;1861082;77;21556;-73
2021/01/01 07:36:18;;;;;;;6.73;3.83;;;;;;;0.95;100.00;100007.53;1860975;77;21374;-73
2021/01/01 07:38:48;;;;;;;9.13;3.63;;;;;;;0.93;100.00;99999.64;1860763;77;20998;-73
2021/01/01 07:41:18;;;;;;;7.10;4.03;;;;;;;0.95;100.00;99971.09;1792307;80;21052;-72
2021/01/01 07:43:49;;;;;;;5.50;3.33;;;;;;;0.94;100.00;99980.06;1792432;80;20997;-73
2021/01/01 07:46:17;;;;;;;7.03;3.53;;;;;;;0.97;100.00;99974.14;1792403;80;20993;-72
2021/01/01 07:48:52;;;;;;;7.67;3.47;;;;;;;0.97;100.00;99969.66;1792303;80;21383;-73
2021/01/01 07:51:20;;;;;;;7.43;3.37;;;;;;;1.00;100.00;99965.94;1792431;80;20973;-73
2021/01/01 07:53:48;;;;;;;6.13;3.70;;;;;;;1.01;100.00;99972.48;1792330;80;21063;-74
2021/01/01 07:56:16;;;;;;;6.77;4.13;;;;;;;1.03;100.00;99969.23;1792313;80;21044;-75
2021/01/01 07:58:43;;;;;;;5.90;3.40;;;;;;;1.08;100.00;99975.06;1792372;80;20961;-74
2021/01/01 08:01:12;;;;;;;4.47;3.00;;;;;;;1.16;100.00;99967.00;1792431;80;21368;-74
2021/01/01 08:03:40;;;;;;;5.57;3.23;;;;;;;1.25;100.00;99967.16;1792321;80;20937;-72
2021/01/01 08:06:08;;;;;;;7.63;4.87;;;;;;;1.36;100.00;99973.51;1792224;80;21673;-72
2021/01/01 08:08:37;;;;;;;5.23;3.40;;;;;;;1.47;100.00;99981.08;1792287;80;21016;-74
2021/01/01 08:11:06;;;;;;;4.67;3.40;;;;;;;1.57;100.00;99976.39;1798091;79;21029;-73
2021/01/01 08:13:41;;;;;;;20.00;7.83;;;;;;;1.73;100.00;99970.76;1829358;76;28281;-73
2021/01/01 08:16:14;;;;;;;15.40;5.87;;;;;;;1.78;100.00;99964.10;1808562;78;20956;-72
2021/01/01 08:18:42;;;;;;;8.63;4.37;;;;;;;1.81;100.00;99959.88;1783210;80;22279;-71
2021/01/01 08:21:10;;;;;;;11.97;4.67;;;;;;;1.83;100.00;99962.44;1735685;82;21419;-72
2021/01/01 08:24:03;;;;;;;10.00;4.50;;;;;;;1.83;100.00;99975.27;1741017;82;21032;-73
2021/01/01 08:26:34;;;;;;;7.05;3.83;;;;;;;1.82;100.00;99986.89;1741117;82;21000;-74
2021/01/01 08:29:02;;;;;;;9.90;4.83;;;;;;;1.82;100.00;99961.56;1740888;82;20978;-73
2021/01/01 08:31:30;;;;;;;5.53;3.20;;;;;;;1.82;100.00;99954.05;1712269;82;21365;-73
2021/01/01 08:33:58;;;;;;;6.87;3.23;;;;;;;1.84;100.00;99971.66;1740998;82;21024;-73
2021/01/01 08:36:31;;;;;;;6.23;3.33;;;;;;;1.85;100.00;99968.00;1758807;80;20998;-72
2021/01/01 08:39:14;;;;;;;10.10;5.22;;;;;;;1.88;100.00;99966.44;1759035;81;20985;-72
2021/01/01 08:41:47;;;;;;;;;;;;;;;1.92;100.00;99963.55;1738370;82;20969;-73
2021/01/01 08:44:16;;;;;;;5.07;3.43;;;;;;;1.96;100.00;99965.00;1741033;82;21816;-72
2021/01/01 08:46:44;;;;;;;6.57;3.73;;;;;;;2.02;100.00;99962.72;1740904;82;21069;-73
2021/01/01 08:49:20;;;;;;;6.27;3.13;;;;;;;2.07;100.00;99965.02;1758820;81;21607;-73
2021/01/01 08:51:49;;;;;;;7.40;3.67;;;;;;;2.14;100.00;99944.89;1758762;81;21009;-73
2021/01/01 08:54:24;;;;;;;9.77;4.17;;;;;;;2.22;100.00;99941.16;1731605;82;21567;-73
2021/01/01 08:56:58;;;;;;;;;;;;;;;2.30;100.00;99946.38;1677721;85;21208;-72
2021/01/01 08:59:26;;;;;;;9.37;4.63;;;;;;;2.36;100.00;99960.59;1675182;85;20166;-73
2021/01/01 09:01:54;;;;;;;8.60;4.30;;;;;;;2.42;100.00;99957.42;1687420;85;21045;-72
2021/01/01 09:04:28;;;;;;;7.60;4.33;;;;;;;2.44;100.00;99964.36;1727515;83;20980;-73
2021/01/01 09:07:03;;;;;;;9.33;4.30;;;;;;;2.50;100.00;99944.33;1845279;76;27217;-72
2021/01/01 09:09:33;;;;;;;8.70;4.40;;;;;;;2.45;100.00;99939.34;1815356;79;21513;-72
2021/01/01 09:12:22;;;;;;;10.53;4.93;;;;;;;2.49;100.00;99931.95;1846445;77;22359;-73
2021/01/01 09:14:55;;;;;;;11.17;5.00;;;;;;;2.50;100.00;99930.98;1860737;77;20906;-73
2021/01/01 09:17:24;;;;;;;;;;;;;;;2.54;100.00;99944.94;1829600;76;20934;-73
2021/01/01 09:20:09;;;;;;;6.70;3.40;;;;;;;2.53;100.00;99952.08;1813522;79;20161;-73
2021/01/01 09:22:38;;;;;;;6.53;3.43;;;;;;;2.54;100.00;99944.94;1813612;79;20942;-73
2021/01/01 09:25:24;;;;;;;9.37;4.53;;;;;;;2.53;100.00;99954.74;1747032;82;21388;-73
2021/01/01 09:27:53;;;;;;;9.07;4.67;;;;;;;2.52;100.00;99942.88;1705446;84;20990;-72
2021/01/01 09:30:29;;;;;;;12.47;5.27;;;;;;;2.48;100.00;99940.94;1706082;84;21010;-72
2021/01/01 09:33:01;;;;;;;8.70;5.30;;;;;;;2.43;100.00;99928.44;1705996;84;20954;-73
2021/01/01 09:35:30;;;;;;;8.07;4.27;;;;;;;2.40;100.00;99914.00;1706048;84;22263;-73
2021/01/01 09:38:01;;;;;;;9.90;4.37;;;;;;;2.38;100.00;99919.45;1706120;84;21229;-73
2021/01/01 09:40:34;;;;;;;10.27;4.47;;;;;;;2.36;100.00;99922.73;1705975;84;21050;-73
2021/01/01 09:43:08;;;;;;;12.47;5.70;;;;;;;2.39;100.00;99918.96;1845304;76;26989;-72
2021/01/01 09:45:37;;;;;;;14.27;5.83;;;;;;;2.33;100.00;99919.46;1815260;79;21027;-73
2021/01/01 09:48:06;;;;;;;12.53;4.80;;;;;;;2.34;100.00;99926.48;1815355;78;21195;-73
2021/01/01 09:50:33;;;;;;;8.30;4.30;;;;;;;2.34;100.00;99922.02;1815274;79;21593;-73
2021/01/01 09:53:02;;;;;;;10.83;4.73;;;;;;;2.38;100.00;99909.28;1815310;79;21202;-74
2021/01/01 09:55:31;;;;;;;7.43;3.77;;;;;;;2.39;100.00;99922.50;1815216;79;21018;-73
2021/01/01 09:57:58;;;;;;;11.23;4.67;;;;;;;2.41;100.00;99917.89;1815269;79;21540;-73
2021/01/01 10:00:27;;;;;;;8.70;4.33;;;;;;;2.44;100.00;99902.97;1815342;78;21354;-73
2021/01/01 10:02:55;;;;;;;12.37;5.37;;;;;;;2.47;100.00;99897.37;1815238;79;21633;-74
2021/01/01 10:05:24;;;;;;;12.67;4.90;;;;;;;2.53;100.00;99901.86;1815226;78;21051;-73
2021/01/01 10:07:52;;;;;;;14.77;4.97;;;;;;;2.58;100.00;99903.17;1815301;79;21522;-73
2021/01/01 10:10:20;;;;;;;8.27;4.00;;;;;;;2.62;100.00;99890.43;1815297;79;20999;-74
2021/01/01 10:12:48;;;;;;;8.73;5.43;;;;;;;2.62;100.00;99893.97;1783188;80;21447;-74
2021/01/01 10:15:15;;;;;;;8.87;3.93;;;;;;;2.66;100.00;99886.06;1782947;79;20984;-73
2021/01/01 10:17:43;;;;;;;11.43;5.57;;;;;;;2.73;100.00;99887.77;1809121;78;21020;-73
2021/01/01 10:20:12;;;;;;;12.00;4.93;;;;;;;2.80;100.00;99873.43;1813489;79;20986;-73
2021/01/01 10:22:42;;;;;;;14.00;5.47;;;;;;;2.84;100.00;99887.72;1813518;78;20990;-73
2021/01/01 10:25:11;;;;;;;14.03;5.70;;;;;;;2.85;100.00;99889.44;1813658;79;21018;-72
2021/01/01 10:27:39;;;;;;;9.17;4.33;;;;;;;2.87;100.00;99891.11;1813475;79;21559;-75
2021/01/01 10:30:07;;;;;;;11.87;5.43;;;;;;;2.89;100.00;99885.19;1813451;79;21010;-73
2021/01/01 10:32:35;;;;;;;9.73;4.53;;;;;;;2.92;100.00;99881.77;1717902;82;21018;-73
2021/01/01 10:35:04;;;;;;;16.00;6.37;;;;;;;2.95;100.00;99892.68;1769599;81;21598;-74
2021/01/01 10:37:32;;;;;;;14.37;5.77;;;;;;;2.96;100.00;99890.38;1769617;81;21375;-73
2021/01/01 10:40:03;;;;;;;9.07;4.63;;;;;;;2.98;100.00;99885.27;1747027;82;21045;-72
2021/01/01 10:42:31;;;;;;;10.00;4.40;;;;;;;3.01;100.00;99881.48;1762786;81;21072;-73
2021/01/01 10:44:58;;;;;;;8.40;3.93;;;;;;;3.03;100.00;99881.73;1746886;82;21511;-73
2021/01/01 10:47:27;;;;;;;6.80;3.63;;;;;;;3.07;100.00;99883.66;1758848;81;20978;-73
2021/01/01 10:49:57;;;;;;;12.63;4.73;;;;;;;3.09;100.00;99886.20;1746811;82;22131;-73
2021/01/01 10:52:24;;;;;;;12.67;6.23;;;;;;;3.11;100.00;99892.27;1758680;81;20981;-73
2021/01/01 10:54:52;;;;;;;13.00;5.53;;;;;;;3.12;100.00;99894.81;1746234;81;21050;-73
2021/01/01 10:57:20;;;;;;;11.40;4.90;;;;;;;3.16;100.00;99897.59;1758179;81;20990;-73
2021/01/01 10:59:48;;;;;;;10.57;5.07;;;;;;;3.15;100.00;99907.93;1746280;82;20989;-73
2021/01/01 11:02:16;;;;;;;8.70;4.63;;;;;;;3.09;100.00;99919.11;1758292;81;21394;-73
2021/01/01 11:04:43;;;;;;;12.13;4.70;;;;;;;3.04;100.00;99919.97;1758180;81;20966;-73
2021/01/01 11:07:11;;;;;;;13.30;5.33;;;;;;;2.98;100.00;99921.82;1758251;81;21169;-73
2021/01/01 11:09:39;;;;;;;11.30;4.63;;;;;;;2.95;100.00;99914.05;1758187;81;21037;-72
2021/01/01 11:12:08;;;;;;;6.57;3.90;;;;;;;2.91;100.00;99916.62;1737654;81;21017;-73
2021/01/01 12:21:49;;;;;;;5.37;2.97;;;;;;;2.57;100.00;99881.48;1783172;80;21198;-71
2021/01/01 12:26:34;;;;;;;5.97;3.83;;;;;;;2.62;100.00;99889.09;1699051;82;20957;-72
2021/01/01 12:29:03;;;;;;;7.90;3.73;;;;;;;2.61;100.00;99889.59;1698734;84;21135;-72
2021/01/01 12:31:31;;;;;;;6.47;3.63;;;;;;;2.62;100.00;99902.45;1698866;84;20980;-72
2021/01/01 12:33:58;;;;;;;9.93;4.23;;;;;;;2.61;100.00;99900.27;1698746;84;21371;-72
2021/01/01 12:36:26;;;;;;;8.90;3.57;;;;;;;2.63;100.00;99900.15;1698741;84;21105;-72
2021/01/01 12:38:54;;;;;;;7.80;3.67;;;;;;;2.63;100.00;99899.66;1698848;84;21000;-71
2021/01/01 12:41:22;;;;;;;5.40;3.43;;;;;;;2.61;100.00;99906.94;1698789;84;21076;-71
2021/01/01 12:43:50;;;;;;;5.53;3.33;;;;;;;2.64;100.00;99911.20;1698699;84;21041;-71
2021/01/01 12:46:17;;;;;;;7.53;3.40;;;;;;;2.64;100.00;99901.36;1698858;84;21389;-71
2021/01/01 12:48:45;;;;;;;9.73;4.83;;;;;;;2.64;100.00;99909.37;1698870;84;21028;-72
2021/01/01 12:51:13;;;;;;;9.23;4.07;;;;;;;2.64;100.00;99907.20;1698672;84;20985;-71
2021/01/01 12:53:41;;;;;;;11.00;4.43;;;;;;;2.64;100.00;99901.86;1698672;84;21036;-72